createdAt,value
2023-03-04T00:01:51.647Z,11.47
2023-03-04T00:05:53.569Z,12.67
2023-03-04T00:09:55.482Z,11.20
2023-03-04T00:13:57.456Z,11.43
2023-03-04T00:17:59.312Z,11.33
2023-03-04T00:22:01.394Z,10.70
2023-03-04T00:26:03.315Z,11.30
2023-03-04T00:30:07.274Z,9.43
2023-03-04T00:34:09.169Z,11.47
2023-03-04T00:38:10.995Z,12.13
2023-03-04T00:42:15.930Z,12.53
2023-03-04T00:46:17.928Z,13.23
2023-03-04T00:50:19.946Z,13.10
2023-03-04T00:54:21.859Z,14.17
2023-03-04T00:58:23.698Z,13.20
2023-03-04T01:02:26.267Z,13.07
2023-03-04T01:06:28.431Z,14.00
2023-03-04T01:10:30.291Z,12.67
2023-03-04T01:14:32.272Z,13.00
2023-03-04T01:18:34.290Z,12.70
2023-03-04T01:22:36.373Z,13.43
2023-03-04T01:26:38.170Z,13.27
2023-03-04T01:30:40.140Z,13.33
2023-03-04T01:34:42.078Z,12.30
2023-03-04T01:38:46.198Z,12.57
2023-03-04T01:42:48.028Z,12.47
2023-03-04T01:46:54.318Z,13.50
2023-03-04T01:50:56.392Z,11.90
2023-03-04T01:54:58.242Z,11.90
2023-03-04T01:59:23.561Z,11.10
2023-03-04T02:03:25.612Z,10.47
2023-03-04T02:07:28.642Z,11.53
2023-03-04T02:11:30.525Z,12.20
2023-03-04T02:15:32.454Z,11.17
2023-03-04T02:20:08.439Z,10.70
2023-03-04T02:24:29.664Z,10.93
2023-03-04T02:28:31.515Z,9.73
2023-03-04T02:32:33.463Z,10.67
2023-03-04T02:36:35.388Z,9.37
2023-03-04T02:40:37.216Z,9.87
2023-03-04T02:44:50.587Z,9.80
2023-03-04T02:48:52.718Z,9.63
2023-03-04T02:52:54.508Z,9.87
2023-03-04T02:57:01.706Z,9.33
2023-03-04T03:01:04.498Z,9.10
2023-03-04T03:05:13.627Z,9.37
2023-03-04T03:09:22.265Z,8.47
2023-03-04T03:13:36.605Z,9.87
2023-03-04T03:17:44.561Z,9.53
2023-03-04T03:21:52.539Z,9.63
2023-03-04T03:26:00.575Z,9.80
2023-03-04T03:30:16.896Z,9.37
2023-03-04T03:34:18.718Z,8.60
2023-03-04T03:38:20.614Z,10.00
2023-03-04T03:42:22.592Z,9.93
2023-03-04T03:46:24.497Z,10.87
2023-03-04T03:50:26.321Z,8.73
2023-03-04T03:54:31.322Z,10.53
2023-03-04T03:58:33.144Z,9.30
2023-03-04T04:02:35.216Z,9.53
2023-03-04T04:06:37.015Z,9.20
2023-03-04T04:10:38.844Z,8.17
2023-03-04T04:14:45.480Z,8.23
2023-03-04T04:18:47.235Z,8.10
2023-03-04T04:22:49.214Z,8.83
2023-03-04T04:27:46.812Z,8.10
2023-03-04T04:31:49.831Z,8.13
2023-03-04T04:35:51.668Z,8.37
2023-03-04T04:39:55.498Z,8.37
2023-03-04T04:43:57.633Z,7.97
2023-03-04T04:47:59.434Z,8.63
2023-03-04T04:52:01.387Z,8.57
2023-03-04T04:56:18.418Z,7.83
2023-03-04T05:00:20.658Z,9.97
2023-03-04T05:04:22.533Z,8.77
2023-03-04T05:08:24.381Z,9.00
2023-03-04T05:12:26.194Z,8.37
2023-03-04T05:16:28.162Z,8.70
2023-03-04T05:20:29.900Z,8.67
2023-03-04T05:24:31.649Z,8.60
2023-03-04T05:28:33.752Z,9.90
2023-03-04T05:32:35.566Z,12.63
2023-03-04T05:36:37.961Z,10.17
2023-03-04T05:40:39.828Z,10.27
2023-03-04T05:44:52.135Z,10.17
2023-03-04T05:48:54.696Z,10.23
2023-03-04T05:52:56.553Z,10.63
2023-03-04T05:56:58.613Z,9.97
2023-03-04T06:01:01.020Z,9.50
2023-03-04T06:05:03.656Z,10.17
2023-03-04T06:09:07.740Z,9.83
2023-03-04T06:13:12.083Z,9.37
2023-03-04T06:17:14.120Z,9.53
2023-03-04T06:21:16.170Z,9.80
2023-03-04T06:25:18.180Z,9.83
2023-03-04T06:29:20.372Z,9.90
2023-03-04T06:33:25.140Z,10.40
2023-03-04T06:37:26.988Z,10.50
2023-03-04T06:41:30.941Z,10.43
2023-03-04T06:45:32.815Z,9.83
2023-03-04T06:49:36.031Z,9.93
2023-03-04T06:53:42.345Z,9.70
2023-03-04T06:57:49.883Z,10.33
2023-03-04T07:01:51.949Z,10.03
2023-03-04T07:05:59.046Z,10.30
2023-03-04T07:10:06.979Z,10.50
2023-03-04T07:14:08.982Z,9.97
2023-03-04T07:18:18.298Z,10.43
2023-03-04T07:22:20.598Z,9.97
2023-03-04T07:26:22.638Z,10.80
2023-03-04T07:30:24.733Z,10.40
2023-03-04T07:34:39.532Z,10.20
2023-03-04T07:38:48.867Z,9.53
2023-03-04T07:42:54.945Z,10.37
2023-03-04T07:47:23.295Z,10.00
2023-03-04T07:51:28.160Z,9.47
2023-03-04T07:55:31.666Z,10.23
2023-03-04T07:59:33.623Z,9.37
2023-03-04T08:03:39.684Z,9.70
2023-03-04T08:07:41.866Z,8.10
2023-03-04T08:11:46.910Z,9.03
2023-03-04T08:15:48.830Z,8.40
2023-03-04T08:19:50.791Z,8.50
2023-03-04T08:23:52.859Z,9.10
2023-03-04T08:27:59.798Z,8.33
2023-03-04T08:32:01.883Z,8.90
2023-03-04T08:36:07.078Z,8.90
2023-03-04T08:40:10.102Z,9.27
2023-03-04T08:44:18.157Z,8.90
2023-03-04T08:48:34.922Z,8.43
2023-03-04T08:52:56.453Z,8.67
2023-03-04T08:57:01.244Z,8.23
2023-03-04T09:01:03.610Z,8.40
2023-03-04T09:05:06.638Z,7.90
2023-03-04T09:09:08.559Z,8.40
2023-03-04T09:13:14.809Z,7.77
2023-03-04T09:17:16.726Z,7.90
2023-03-04T09:21:18.682Z,7.63
2023-03-04T09:25:20.643Z,8.53
2023-03-04T09:29:23.244Z,7.83
2023-03-04T09:33:32.375Z,7.40
2023-03-04T09:37:38.667Z,6.53
2023-03-04T09:41:51.107Z,7.40
2023-03-04T09:46:17.157Z,7.30
2023-03-04T09:50:22.312Z,7.17
2023-03-04T09:55:26.737Z,6.30
2023-03-04T09:59:46.177Z,6.53
2023-03-04T10:08:55.642Z,6.70
2023-03-04T10:13:04.293Z,6.93
2023-03-04T10:17:29.676Z,6.63
2023-03-04T10:21:48.257Z,6.70
2023-03-04T10:25:58.065Z,6.87
2023-03-04T10:30:10.010Z,5.83
2023-03-04T10:34:23.308Z,5.00
2023-03-04T10:38:47.309Z,5.47
2023-03-04T10:48:50.075Z,5.00
2023-03-04T10:54:09.253Z,5.17
2023-03-04T10:58:42.923Z,5.27
2023-03-04T11:03:28.737Z,4.77
2023-03-04T11:08:35.669Z,4.83
2023-03-04T11:13:21.155Z,4.70
2023-03-04T11:18:32.451Z,4.13
2023-03-04T11:22:56.643Z,5.20
2023-03-04T11:27:33.953Z,4.77
2023-03-04T11:31:57.984Z,4.43
2023-03-04T11:48:02.290Z,4.20
2023-03-04T12:18:27.830Z,3.50
2023-03-04T12:33:18.199Z,3.77
2023-03-04T12:38:19.363Z,3.53
2023-03-04T13:30:27.967Z,3.23
2023-03-04T13:39:58.362Z,3.00
2023-03-04T13:50:50.853Z,2.47
2023-03-04T13:56:37.148Z,1.97
2023-03-04T14:06:26.582Z,1.80
2023-03-04T14:16:37.247Z,2.10
2023-03-04T14:20:51.613Z,2.03
2023-03-04T14:31:13.716Z,2.50
2023-03-04T14:41:13.394Z,2.60
2023-03-04T14:45:52.750Z,2.53
2023-03-04T14:50:55.666Z,2.40
2023-03-04T15:16:35.578Z,1.80
2023-03-04T15:21:50.161Z,2.00
2023-03-04T15:34:27.596Z,1.80
2023-03-04T15:38:19.633Z,2.00
2023-03-04T15:48:09.973Z,1.70
2023-03-04T15:52:53.418Z,1.73
2023-03-04T16:07:50.176Z,2.17
2023-03-04T16:12:05.255Z,2.33
2023-03-04T16:16:36.242Z,2.93
2023-03-04T16:20:51.745Z,2.50
2023-03-04T16:25:17.615Z,2.00
2023-03-04T16:29:20.517Z,2.50
2023-03-04T16:33:38.684Z,2.70
2023-03-04T16:37:49.171Z,2.73
2023-03-04T16:41:55.988Z,2.17
2023-03-04T16:46:05.049Z,2.80
2023-03-04T16:54:48.791Z,2.30
2023-03-04T16:59:14.784Z,2.70
2023-03-04T17:03:19.767Z,2.30
2023-03-04T17:07:40.706Z,2.30
2023-03-04T17:11:58.308Z,2.33
2023-03-04T17:16:23.521Z,2.50
2023-03-04T17:20:29.887Z,2.40
2023-03-04T17:24:58.319Z,2.70
2023-03-04T17:33:59.789Z,2.20
2023-03-04T17:42:59.546Z,2.30
2023-03-04T17:47:13.017Z,2.03
2023-03-04T17:52:00.202Z,2.10
2023-03-04T17:56:51.852Z,1.83
2023-03-04T18:01:02.411Z,1.63
2023-03-04T18:09:53.461Z,1.80
2023-03-04T18:14:01.447Z,2.67
2023-03-04T18:18:13.398Z,2.27
2023-03-04T18:23:11.040Z,3.30
2023-03-04T18:32:12.690Z,2.10
2023-03-04T18:36:40.333Z,2.53
2023-03-04T18:56:37.400Z,2.33
2023-03-04T19:00:53.121Z,2.43
2023-03-04T19:09:57.373Z,2.23
2023-03-04T19:14:29.733Z,2.67
2023-03-04T19:19:13.824Z,2.87
2023-03-04T19:24:04.318Z,2.43
2023-03-04T19:28:35.076Z,2.10
2023-03-04T19:32:41.184Z,2.10
2023-03-04T19:36:45.461Z,2.40
2023-03-04T19:41:01.375Z,2.93
2023-03-04T19:45:18.660Z,2.10
2023-03-04T19:49:39.935Z,2.27
2023-03-04T19:54:00.341Z,2.27
2023-03-04T19:58:05.069Z,2.50
2023-03-04T20:02:09.835Z,1.90
2023-03-04T20:06:25.021Z,2.97
2023-03-04T20:10:38.022Z,2.47
2023-03-04T20:15:01.587Z,1.73
2023-03-04T20:19:04.786Z,1.93
2023-03-04T20:23:19.506Z,1.87
2023-03-04T20:27:24.352Z,2.27
2023-03-04T20:31:37.199Z,2.23
2023-03-04T20:35:40.900Z,2.63
2023-03-04T20:39:47.647Z,2.70
2023-03-04T20:43:52.186Z,2.33
2023-03-04T20:47:54.274Z,2.40
2023-03-04T20:52:08.575Z,2.80
2023-03-04T20:56:13.422Z,2.60
2023-03-04T21:00:19.070Z,2.80
2023-03-04T21:04:23.280Z,2.40
2023-03-04T21:08:25.369Z,2.10
2023-03-04T21:12:27.346Z,2.33
2023-03-04T21:16:33.582Z,2.00
2023-03-04T21:20:37.461Z,2.33
2023-03-04T21:24:40.141Z,2.57
2023-03-04T21:28:43.350Z,2.47
2023-03-04T21:32:45.290Z,3.07
2023-03-04T21:36:51.277Z,3.43
2023-03-04T21:40:54.067Z,2.53
2023-03-04T21:44:56.034Z,7.90
2023-03-04T21:48:57.876Z,2.97
2023-03-04T21:52:59.919Z,2.50
2023-03-04T21:57:01.798Z,2.57
2023-03-04T22:01:12.182Z,5.80
2023-03-04T22:05:14.071Z,2.23
2023-03-04T22:09:15.941Z,2.23
2023-03-04T22:13:17.850Z,2.67
2023-03-04T22:17:22.604Z,2.30
2023-03-04T22:21:24.670Z,2.70
2023-03-04T22:25:26.685Z,2.57
2023-03-04T22:29:28.555Z,2.80
2023-03-04T22:33:32.766Z,2.50
2023-03-04T22:37:34.598Z,2.50
2023-03-04T22:41:36.797Z,2.20
2023-03-04T22:45:38.800Z,2.27
2023-03-04T22:49:41.667Z,2.13
2023-03-04T22:53:49.875Z,2.23
2023-03-04T22:57:54.106Z,1.97
2023-03-04T23:01:57.187Z,2.17
2023-03-04T23:06:06.988Z,2.00
2023-03-04T23:10:14.619Z,2.40
2023-03-04T23:14:16.673Z,2.30
2023-03-04T23:18:18.763Z,1.70
2023-03-04T23:22:20.726Z,1.83
2023-03-04T23:26:26.074Z,1.80
2023-03-04T23:30:28.221Z,2.10
2023-03-04T23:34:33.458Z,1.97
2023-03-04T23:38:35.344Z,1.40
2023-03-04T23:42:38.385Z,1.80
2023-03-04T23:46:40.339Z,1.73
2023-03-04T23:50:42.192Z,1.83
2023-03-04T23:54:44.099Z,1.70
2023-03-04T23:58:46.593Z,1.90
